Data for 07/07/2016

Time Sea-Level Adjusted Pressure Absolute Pressure Temperature Relative Humidity Dew Point   
(mb) (inHg) (mb) (inHg) (C) (F) (%) (C) (F)
00:05 1019 30.09 848 25.04 9.8 49.7 56 1.6 34.9
00:10 1019 30.09 848 25.04 9.7 49.4 57 1.5 34.8
00:15 1019 30.09 848 25.04 9.7 49.4 57 1.5 34.7
00:20 1019 30.09 848 25.04 9.7 49.4 56 1.5 34.6
00:25 1019 30.09 848 25.04 9.7 49.4 56 1.4 34.6
00:30 1019 30.09 848 25.04 9.6 49.3 57 1.4 34.6
00:35 1019 30.09 848 25.04 9.6 49.3 56 1.4 34.5
00:40 1019 30.09 848 25.04 9.5 49.2 57 1.6 34.8
00:45 1019 30.09 848 25.04 9.3 48.8 58 1.5 34.7
00:50 1019 30.09 848 25.04 9.1 48.3 58 1.4 34.5
00:55 1019 30.09 848 25.04 8.9 48.1 60 1.6 34.9
01:00 1019 30.09 848 25.04 8.7 47.7 60 1.4 34.5
01:05 1019 30.09 848 25.04 8.8 47.8 59 1.2 34.2
01:10 1019 30.09 848 25.04 8.9 48 59 1.3 34.4
01:15 1019 30.09 848 25.04 8.8 47.8 60 1.4 34.5
01:20 1019 30.09 848 25.04 8.7 47.6 60 1.3 34.4
01:25 1019 30.09 848 25.04 8.7 47.7 59 1.1 34
01:30 1019 30.09 848 25.04 8.7 47.7 59 1.3 34.3
01:35 1019 30.09 848 25.04 8.7 47.6 59 1.2 34.2
01:40 1019 30.09 848 25.04 8.6 47.5 60 1.3 34.3
01:45 1019 30.09 848 25.04 8.4 47.1 61 1.4 34.6
01:50 1019 30.09 848 25.04 7.5 45.6 68 2 35.5
01:55 1019 30.09 848 25.04 7 44.6 67 1.2 34.2
02:00 1019 30.09 848 25.04 7.2 45 65 1 33.9
02:05 1019 30.09 848 25.04 7.5 45.5 64 1.1 34
02:10 1019 30.09 848 25.04 7.5 45.5 64 1.2 34.2
02:15 1019 30.09 848 25.04 7.4 45.2 65 1.2 34.2
02:20 1019 30.09 848 25.04 7.2 45 65 1.2 34.2
02:25 1019 30.09 848 25.04 7.1 44.7 66 1.2 34.2
02:30 1019 30.09 848 25.04 7.1 44.7 65 1 33.8
02:35 1019 30.09 848 25.04 7.2 44.9 65 1.1 33.9
02:40 1019 30.09 848 25.04 7.3 45.1 65 1.2 34.1
02:45 1019 30.09 848 25.04 7.2 45 66 1.3 34.4
02:50 1019 30.09 848 25.04 7 44.6 67 1.2 34.2
02:55 1019 30.09 848 25.04 6.8 44.3 67 1.2 34.2
03:00 1019 30.09 848 25.04 6.7 44.1 66 0.8 33.5
03:05 1019 30.09 848 25.04 6.7 44.1 66 0.9 33.7
03:10 1019 30.09 848 25.04 6.7 44.1 65 0.7 33.3
03:15 1019 30.09 848 25.04 7.1 44.8 64 0.8 33.4
03:20 1019 30.09 848 25.04 7.3 45.1 63 0.7 33.2
03:25 1019 30.09 848 25.04 7.4 45.3 63 0.8 33.5
03:30 1019 30.09 848 25.04 7.4 45.3 64 1.1 33.9
03:35 1019 30.09 848 25.04 7.3 45.1 64 0.9 33.7
03:40 1019 30.09 848 25.04 7.3 45.1 63 0.7 33.3
03:45 1019 30.09 848 25.04 7.2 44.9 65 1.1 34
03:50 1019 30.09 848 25.04 6.7 44.1 67 1 33.8
03:55 1019 30.09 848 25.04 6.4 43.6 68 1.1 33.9
04:00 1019 30.09 848 25.04 6.2 43.1 70 1.1 34
04:05 1019 30.09 848 25.04 6.1 43 69 0.9 33.6
04:10 1019 30.09 848 25.04 6.4 43.4 68 0.9 33.6
04:15 1019 30.09 848 25.04 6.3 43.4 68 0.9 33.6
04:20 1019 30.09 849 25.07 6.2 43.2 70 1.1 34
04:25 1019 30.09 849 25.07 5.9 42.6 71 1 33.9
04:30 1019 30.09 849 25.07 5.6 42 72 0.9 33.7
04:35 1020 30.12 849 25.07 5.5 41.9 72 0.8 33.4
04:40 1019 30.09 849 25.07 5.7 42.3 70 0.8 33.4
04:45 1019 30.09 849 25.07 5.7 42.3 71 0.9 33.6
04:50 1019 30.09 849 25.07 5.6 42 71 0.8 33.5
04:55 1019 30.09 849 25.07 5.6 42 71 0.7 33.3
05:00 1019 30.09 849 25.07 5.4 41.8 72 0.8 33.5
05:05 1020 30.12 849 25.07 5.4 41.7 72 0.7 33.2
05:10 1020 30.12 849 25.07 5.7 42.3 70 0.6 33.2
05:15 1020 30.12 849 25.07 5.9 42.7 69 0.8 33.4
05:20 1020 30.12 849 25.07 6.1 43 68 0.7 33.3
05:25 1020 30.12 849 25.07 6.4 43.4 68 0.9 33.6
05:30 1020 30.12 849 25.07 6.4 43.6 68 1 33.8
05:35 1020 30.12 849 25.07 6.5 43.7 67 0.9 33.6
05:40 1020 30.12 849 25.07 6.4 43.5 67 0.7 33.3
05:45 1020 30.12 849 25.07 6.6 43.9 66 0.7 33.3
05:50 1020 30.12 849 25.07 6.8 44.3 65 0.8 33.4
05:55 1020 30.12 849 25.07 7.1 44.8 64 0.8 33.5
06:00 1020 30.12 849 25.07 7.5 45.4 63 1 33.8
06:05 1020 30.12 849 25.07 7.6 45.8 62 0.9 33.7
06:10 1020 30.12 849 25.07 8 46.3 62 1.1 34
06:15 1020 30.12 849 25.07 8.2 46.8 60 0.9 33.7
06:20 1020 30.12 849 25.07 8.9 48 59 1.2 34.2
06:25 1020 30.12 849 25.07 9.4 48.9 58 1.5 34.6
06:30 1020 30.12 849 25.07 9.8 49.7 56 1.5 34.7
06:35 1020 30.12 849 25.07 9.7 49.4 57 1.6 34.9
06:40 1020 30.12 849 25.07 9.9 49.8 55 1.4 34.6
06:45 1020 30.12 849 25.07 9.9 49.8 56 1.5 34.6
06:50 1020 30.12 849 25.07 10 49.9 54 1.2 34.1
06:55 1020 30.12 849 25.07 10.3 50.6 54 1.5 34.7
07:00 1020 30.12 849 25.07 10.8 51.5 53 1.6 34.9
07:05 1020 30.12 849 25.07 11.7 53.1 49 1.5 34.6
07:10 1020 30.12 849 25.07 12.6 54.6 47 1.7 35.1
07:15 1020 30.12 849 25.07 13.1 55.7 46 1.9 35.5
07:20 1020 30.12 849 25.07 13.8 56.9 43 1.6 34.9
07:25 1020 30.12 849 25.07 13.9 57.1 44 2.1 35.7
07:30 1020 30.12 849 25.07 13.8 56.9 45 2.1 35.8
07:35 1020 30.12 849 25.07 13.6 56.5 45 2.2 35.9
07:40 1020 30.12 849 25.07 13.3 56 44 1.5 34.6
07:45 1020 30.12 849 25.07 13.6 56.5 44 1.8 35.2
07:50 1020 30.12 849 25.07 14.4 57.8 41 1.2 34.2
07:55 1020 30.12 849 25.07 14.6 58.2 42 1.9 35.4
08:00 1020 30.12 849 25.07 14.4 58 41 1.5 34.7
08:05 1020 30.12 849 25.07 15 59 40 1.5 34.8
08:10 1020 30.12 849 25.07 14.6 58.4 40 1.1 34
08:15 1020 30.12 849 25.07 15.1 59.1 38 1 33.7
08:20 1020 30.12 849 25.07 15.9 60.6 36 0.8 33.5
08:25 1020 30.12 849 25.07 15.9 60.6 36 0.8 33.4
08:30 1020 30.12 849 25.07 15.1 59.2 37 0.5 32.9
08:35 1020 30.12 849 25.07 15 59.1 36 0.2 32.4
08:40 1020 30.12 849 25.07 15 59.1 36 0 32.1
08:45 1020 30.12 849 25.07 16.3 61.4 31 -0.7 30.8
08:50 1020 30.12 849 25.07 16.8 62.3 33 0.4 32.7
08:55 1020 30.12 849 25.07 17.1 62.8 31 0.1 32.2
09:00 1020 30.12 849 25.07 17.5 63.4 30 -0.2 31.6
09:05 1020 30.12 849 25.07 17.5 63.5 30 -0.2 31.6
09:10 1020 30.12 849 25.07 17.6 63.6 29 -0.6 31
09:15 1020 30.12 849 25.07 16.7 62.1 33 0.3 32.6
09:20 1020 30.12 849 25.07 16.6 61.9 32 0 32.1
09:25 1020 30.12 849 25.07 16.9 62.4 29 -0.9 30.3
09:30 1020 30.12 849 25.07 17.8 64 29 -0.4 31.3
09:35 1020 30.12 849 25.07 18 64.5 29 0 32
09:40 1020 30.12 849 25.07 18.1 64.6 27 -1.3 29.7
09:45 1020 30.12 849 25.07 18 64.4 26 -1.5 29.3
09:50 1020 30.12 849 25.07 18.2 64.7 27 -1 30.3
09:55 1020 30.12 849 25.07 18.1 64.5 26 -1.7 28.9
10:00 1020 30.12 849 25.07 18.5 65.2 25 -1.7 28.9
10:05 1020 30.12 849 25.07 19 66.1 25 -1.2 29.8
10:10 1020 30.12 849 25.07 18.8 65.9 26 -1.2 29.9
10:15 1020 30.12 849 25.07 18.8 65.9 26 -0.9 30.3
10:20 1020 30.12 849 25.07 18.7 65.6 27 -0.5 31
10:25 1020 30.12 849 25.07 18.7 65.7 25 -1.5 29.4
10:30 1020 30.12 849 25.07 19 66.1 25 -1.4 29.5
10:35 1020 30.12 849 25.07 19.3 66.7 25 -1.3 29.6
10:40 1020 30.12 849 25.07 18.9 66.1 23 -2.6 27.3
10:45 1020 30.12 849 25.07 18.1 64.5 25 -2.1 28.3
10:50 1020 30.12 849 25.07 18.4 65.1 26 -1.5 29.3
10:55 1020 30.12 849 25.07 18.7 65.7 25 -1.5 29.2
11:00 1020 30.12 849 25.07 19.2 66.5 23 -2.1 28.2
11:05 1019 30.09 849 25.07 19.8 67.6 24 -1.3 29.7
11:10 1019 30.09 849 25.07 19.9 67.8 23 -1.9 28.5
11:15 1019 30.09 849 25.07 20.2 68.4 22 -2 28.4
11:20 1019 30.09 849 25.07 20.4 68.7 23 -1.5 29.2
11:25 1019 30.09 848 25.04 20.5 68.9 22 -1.7 28.9
11:30 1019 30.09 848 25.04 19.9 67.7 23 -1.5 29.3
11:35 1019 30.09 848 25.04 20.4 68.7 22 -1.9 28.5
11:40 1019 30.09 848 25.04 19.7 67.5 22 -2.6 27.3
11:45 1019 30.09 848 25.04 19.8 67.6 22 -2.5 27.5
11:50 1019 30.09 848 25.04 20.7 69.2 20 -2.6 27.3
11:55 1019 30.09 848 25.04 20.5 68.9 21 -2.2 28
12:00 1019 30.09 848 25.04 21.1 70 21 -2 28.4
12:05 1019 30.09 848 25.04 20.9 69.7 21 -2.2 28.1
12:10 1019 30.09 848 25.04 20.8 69.4 21 -2.1 28.2
12:15 1019 30.09 848 25.04 19.5 67.2 21 -3 26.5
12:20 1019 30.09 848 25.04 20.5 68.8 21 -2.7 27.1
12:25 1019 30.09 848 25.04 21.2 70.2 21 -1.6 29.1
12:30 1019 30.09 848 25.04 21 69.9 20 -2.4 27.7
12:35 1019 30.09 848 25.04 21.1 70 20 -2.7 27.2
12:40 1019 30.09 848 25.04 21.2 70.2 20 -2.4 27.6
12:45 1018 30.06 848 25.04 21.4 70.4 22 -0.8 30.6
12:50 1018 30.06 848 25.04 22.2 72 18 -3 26.5
12:55 1018 30.06 848 25.04 21.5 70.7 19 -2.7 27.1
13:00 1018 30.06 848 25.04 21.5 70.6 20 -2.6 27.4
13:05 1018 30.06 847 25.01 21.7 71 20 -2.4 27.7
13:10 1018 30.06 847 25.01 21.8 71.3 21 -1.6 29.2
13:15 1018 30.06 847 25.01 22.7 72.8 18 -2.6 27.3
13:20 1018 30.06 847 25.01 23.9 75 18 -1.6 29.2
13:25 1018 30.06 847 25.01 23.9 75.1 18 -2 28.5
13:30 1018 30.06 847 25.01 23.7 74.7 18 -1.6 29.1
13:35 1018 30.06 847 25.01 23.8 74.9 18 -1.8 28.8
13:40 1018 30.06 847 25.01 23.4 74.2 18 -1.9 28.6
13:45 1018 30.06 847 25.01 23.6 74.5 16 -3.6 25.5
13:50 1018 30.06 847 25.01 23.8 74.8 17 -2.4 27.6
13:55 1018 30.06 847 25.01 23.8 74.8 17 -2.7 27.2
14:00 1018 30.06 847 25.01 23.8 74.9 17 -2.9 26.8
14:05 1018 30.06 847 25.01 24.2 75.5 15 -3.8 25.2
14:10 1018 30.06 847 25.01 24 75.1 16 -3.3 26
14:15 1018 30.06 847 25.01 23.7 74.7 16 -3.3 26
14:20 1018 30.06 847 25.01 24 75.2 15 -4.1 24.6
14:25 1018 30.06 847 25.01 24 75.2 15 -4.4 24.1
14:30 1017 30.03 847 25.01 23.3 73.9 15 -4.5 23.9
14:35 1017 30.03 847 25.01 23.3 73.9 16 -4 24.8
14:40 1017 30.03 847 25.01 23.5 74.2 15 -4.6 23.7
14:45 1017 30.03 847 25.01 24 75.2 15 -4.3 24.3
14:50 1017 30.03 847 25.01 24.4 76 15 -4 24.8
14:55 1017 30.03 846 24.98 24.7 76.4 15 -3.5 25.8
15:00 1017 30.03 846 24.98 24.6 76.3 14 -4.4 24
15:05 1017 30.03 846 24.98 24.7 76.5 15 -3.8 25.2
15:10 1017 30.03 846 24.98 24.7 76.4 15 -3.3 26.1
15:15 1017 30.03 846 24.98 24 75.1 14 -4.6 23.7
15:20 1017 30.03 846 24.98 23.8 74.8 14 -5.2 22.6
15:25 1017 30.03 846 24.98 24.1 75.3 15 -4.2 24.4
15:30 1017 30.03 846 24.98 23.7 74.7 14 -4.9 23.2
15:35 1017 30.03 846 24.98 23.3 74 15 -4.3 24.3
15:40 1017 30.03 846 24.98 23.1 73.6 15 -4.7 23.5
15:45 1017 30.03 846 24.98 23.7 74.7 15 -4.6 23.7
15:50 1017 30.03 846 24.98 23.5 74.3 15 -4.9 23.3
15:55 1017 30.03 846 24.98 23.2 73.7 14 -5.2 22.6
16:00 1017 30.03 846 24.98 23.1 73.6 15 -5 23.1
16:05 1017 30.03 846 24.98 23 73.3 15 -4.8 23.4
16:10 1017 30.03 846 24.98 23.5 74.4 14 -4.9 23.2
16:15 1017 30.03 846 24.98 24.6 76.2 13 -5 23
16:20 1017 30.03 846 24.98 24.3 75.7 14 -4.9 23.2
16:25 1017 30.03 846 24.98 24.6 76.2 13 -5.2 22.6
16:30 1017 30.03 846 24.98 24.4 75.9 13 -5.5 22.2
16:35 1017 30.03 846 24.98 24.8 76.7 13 -5.1 22.8
16:40 1017 30.03 846 24.98 24.6 76.3 14 -4.7 23.5
16:45 1017 30.03 846 24.98 23.9 75.1 14 -5.2 22.7
16:50 1017 30.03 846 24.98 23.6 74.5 14 -4.9 23.2
16:55 1017 30.03 846 24.98 23.1 73.5 15 -5.1 22.8
17:00 1017 30.03 846 24.98 23 73.4 15 -5.1 22.9
17:05 1017 30.03 846 24.98 23.4 74.2 15 -4.7 23.5
17:10 1017 30.03 846 24.98 23.6 74.5 15 -4.4 24
17:15 1017 30.03 846 24.98 23.9 75 15 -3.7 25.3
17:20 1017 30.03 846 24.98 23.9 75 15 -4.3 24.3
17:25 1017 30.03 846 24.98 23.5 74.4 14 -4.8 23.3
17:30 1017 30.03 846 24.98 23.3 73.9 14 -5.1 22.9
17:35 1017 30.03 846 24.98 23.4 74.1 14 -5.3 22.5
17:40 1017 30.03 846 24.98 23.5 74.4 14 -5.5 22
17:45 1017 30.03 846 24.98 24.1 75.4 13 -5.3 22.4
17:50 1017 30.03 846 24.98 24.2 75.6 13 -5.2 22.6
17:55 1017 30.03 846 24.98 24.1 75.5 14 -5.2 22.7
18:00 1017 30.03 846 24.98 23.9 75.1 13 -5.9 21.5
18:05 1017 30.03 846 24.98 24.1 75.4 14 -5.1 22.8
18:10 1017 30.03 846 24.98 24.4 75.9 13 -5.5 22.1
18:15 1017 30.03 846 24.98 24 75.2 14 -5.2 22.6
18:20 1017 30.03 846 24.98 24.1 75.3 14 -5.2 22.7
18:25 1017 30.03 846 24.98 24.2 75.6 14 -4.6 23.7
18:30 1017 30.03 846 24.98 23.9 75.1 15 -4.2 24.4
18:35 1017 30.03 846 24.98 23.7 74.6 14 -5.2 22.7
18:40 1017 30.03 846 24.98 23.2 73.8 15 -4.7 23.5
18:45 1017 30.03 846 24.98 23.1 73.6 15 -4.8 23.3
18:50 1017 30.03 846 24.98 23 73.5 17 -3.2 26.3
18:55 1017 30.03 846 24.98 22.8 73.1 16 -4.1 24.6
19:00 1017 30.03 846 24.98 22.7 72.9 16 -4.4 24.1
19:05 1017 30.03 846 24.98 22.7 72.9 16 -3.9 25
19:10 1017 30.03 846 24.98 22.7 72.9 17 -3.2 26.3
19:15 1017 30.03 846 24.98 22.6 72.7 18 -2.6 27.3
19:20 1017 30.03 846 24.98 22.4 72.3 18 -2.9 26.9
19:25 1017 30.03 846 24.98 22.2 72 18 -2.8 27
19:30 1017 30.03 846 24.98 22.1 71.8 19 -2.2 28
19:35 1017 30.03 846 24.98 22 71.7 19 -2.7 27.2
19:40 1017 30.03 846 24.98 21.8 71.3 20 -1.9 28.5
19:45 1017 30.03 846 24.98 21.6 71 20 -1.8 28.7
19:50 1017 30.03 846 24.98 21.5 70.6 21 -1.3 29.7
19:55 1017 30.03 846 24.98 21.2 70.2 22 -1 30.2
20:00 1017 30.03 846 24.98 21 69.9 21 -2 28.4
20:05 1017 30.03 846 24.98 21 69.7 21 -1.8 28.8
20:10 1017 30.03 846 24.98 20.9 69.5 21 -2.3 27.8
20:15 1017 30.03 846 24.98 20.9 69.6 25 0.1 32.1
20:20 1017 30.03 846 24.98 20.3 68.5 26 0.3 32.5
20:25 1017 30.03 846 24.98 19.8 67.7 26 -0.2 31.7
20:30 1017 30.03 846 24.98 19.7 67.5 26 -0.1 31.9
20:35 1017 30.03 846 24.98 19.6 67.3 25 -0.6 31
20:40 1017 30.03 846 24.98 20.1 68.2 27 0.7 33.2
20:45 1017 30.03 846 24.98 19.8 67.6 27 0.6 33.1
20:50 1017 30.03 846 24.98 19.5 67.1 29 1.3 34.4
20:55 1017 30.03 846 24.98 19.2 66.5 30 1.2 34.2
21:00 1017 30.03 846 24.98 18.9 66 29 0.8 33.5
21:05 1017 30.03 846 24.98 18.9 66 29 0.8 33.4
21:10 1017 30.03 846 24.98 18.8 65.9 27 -0.4 31.3
21:15 1017 30.03 846 24.98 18.9 66.1 29 0.6 33.1
21:20 1017 30.03 846 24.98 18.9 65.9 29 0.4 32.7
21:25 1017 30.03 847 25.01 18.7 65.7 28 -0.1 31.9
21:30 1017 30.03 847 25.01 18.6 65.4 28 0 32
21:35 1017 30.03 847 25.01 18.4 65.2 27 -0.9 30.4
21:40 1017 30.03 847 25.01 18.5 65.3 29 0.1 32.1
21:45 1017 30.03 847 25.01 18.3 64.9 29 -0.1 31.9
21:50 1017 30.03 847 25.01 18 64.3 30 0.2 32.4
21:55 1017 30.03 847 25.01 18 64.4 28 -0.6 31
22:00 1017 30.03 846 24.98 18.1 64.5 26 -1.6 29.1
22:05 1017 30.03 846 24.98 18.4 65.1 27 -0.6 30.9
22:10 1017 30.03 846 24.98 18.2 64.7 28 -0.7 30.7
22:15 1017 30.03 846 24.98 18 64.5 28 -0.6 31
22:20 1017 30.03 846 24.98 17.8 64 29 -0.5 31.2
22:25 1017 30.03 846 24.98 17.6 63.6 30 -0.1 31.9
22:30 1017 30.03 846 24.98 17.2 63 30 -0.6 30.9
22:35 1017 30.03 846 24.98 17.3 63.1 29 -0.8 30.5
22:40 1017 30.03 846 24.98 17.1 62.8 30 -0.4 31.3
22:45 1017 30.03 846 24.98 17.1 62.7 29 -0.8 30.5
22:50 1017 30.03 846 24.98 17 62.6 29 -1.2 29.8
22:55 1017 30.03 846 24.98 17.1 62.8 28 -1.5 29.4
23:00 1017 30.03 846 24.98 17.2 62.9 28 -1.6 29.1
23:05 1017 30.03 846 24.98 17.1 62.8 28 -1.4 29.5
23:10 1017 30.03 846 24.98 17.2 62.9 29 -1.1 30.1
23:15 1017 30.03 846 24.98 16.9 62.4 29 -1.1 30
23:20 1017 30.03 846 24.98 16.6 61.9 31 -0.4 31.3
23:25 1017 30.03 846 24.98 16.4 61.5 30 -1 30.2
23:30 1017 30.03 846 24.98 16 60.8 32 -0.5 31.1
23:35 1017 30.03 846 24.98 15.6 60.1 32 -1 30.1
23:40 1017 30.03 846 24.98 15.7 60.2 31 -1.2 29.8
23:45 1017 30.03 846 24.98 15.9 60.5 31 -1.3 29.6
23:50 1017 30.03 846 24.98 15.9 60.5 33 -0.3 31.5
23:55 1017 30.03 846 24.98 15.8 60.4 33 -0.4 31.3
24:00 1017 30.03 846 24.98 15.7 60.3 32 -1 30.3